Time;durP1;ratioP1;P1;durP2;ratioP2;P2;SDS_P1;SDS_P2;PMS_P1;PMS_P2;Temp;Humidity;BMP_temperature;BMP_pressure;BME280_temperature;BME280_humidity;BME280_pressure;Samples;Min_cycle;Max_cycle;Signal;HPM_P1;HPM_P2
2024/04/13 00:00:21;;;;;;;27.57;14.47;;;10.10;94.00;;;;;;5526938;26;20270;-86
2024/04/13 00:02:46;;;;;;;40.73;14.33;;;10.30;93.80;;;;;;5526481;26;20314;-86
2024/04/13 00:05:12;;;;;;;31.67;13.43;;;10.40;93.50;;;;;;5525427;26;20317;-87
2024/04/13 00:07:38;;;;;;;31.40;12.73;;;10.50;93.10;;;;;;5526926;26;20342;-86
2024/04/13 00:10:04;;;;;;;25.90;12.37;;;10.50;92.90;;;;;;5526565;26;20256;-86
2024/04/13 00:12:30;;;;;;;22.27;13.60;;;10.50;92.70;;;;;;5526432;26;20690;-86
2024/04/13 00:14:56;;;;;;;23.47;12.37;;;10.60;92.50;;;;;;5526577;26;20717;-86
2024/04/13 00:17:24;;;;;;;26.00;11.93;;;10.50;92.40;;;;;;5526407;26;20214;-86
2024/04/13 00:19:50;;;;;;;25.37;11.60;;;10.50;92.50;;;;;;5526141;26;20678;-86
2024/04/13 00:22:19;;;;;;;21.53;12.50;;;10.50;92.50;;;;;;5526528;26;20255;-85
2024/04/13 00:24:45;;;;;;;26.07;12.23;;;10.60;92.40;;;;;;5493839;26;20234;-86
2024/04/13 00:27:11;;;;;;;23.00;12.27;;;10.70;92.30;;;;;;5526704;26;20244;-86
2024/04/13 00:29:37;;;;;;;18.50;11.20;;;10.70;92.10;;;;;;5526717;26;20213;-85
2024/04/13 00:32:05;;;;;;;23.50;12.10;;;10.70;92.00;;;;;;5526203;26;20268;-85
2024/04/13 00:34:34;;;;;;;15.23;10.20;;;10.80;91.90;;;;;;5526264;26;20226;-86
2024/04/13 00:37:06;;;;;;;18.23;10.77;;;10.90;91.60;;;;;;5526385;26;20218;-86
2024/04/13 00:39:31;;;;;;;20.17;10.47;;;10.90;91.40;;;;;;5493503;26;20709;-86
2024/04/13 00:41:58;;;;;;;21.50;10.87;;;10.90;91.40;;;;;;5525907;26;20216;-85
2024/04/13 00:44:23;;;;;;;18.90;11.10;;;11.00;91.30;;;;;;5526008;26;20758;-86
2024/04/13 00:46:49;;;;;;;21.80;13.03;;;11.00;91.20;;;;;;5526189;26;20318;-86
2024/04/13 00:49:19;;;;;;;24.40;12.87;;;11.00;91.20;;;;;;5493394;26;20221;-86
2024/04/13 00:51:48;;;;;;;20.47;13.33;;;11.00;91.30;;;;;;5493367;26;20584;-86
2024/04/13 00:54:18;;;;;;;21.60;12.43;;;10.90;91.20;;;;;;5526128;26;20248;-86
2024/04/13 00:56:47;;;;;;;22.10;12.60;;;11.00;91.20;;;;;;5525919;26;20570;-86
2024/04/13 00:59:12;;;;;;;20.30;13.30;;;11.00;91.30;;;;;;5525755;26;20210;-86
2024/04/13 01:01:38;;;;;;;16.50;12.13;;;11.00;91.30;;;;;;5525931;26;20261;-86
2024/04/13 01:04:04;;;;;;;16.13;12.93;;;11.10;91.30;;;;;;5525520;26;20222;-86
2024/04/13 01:06:32;;;;;;;24.07;12.70;;;11.10;91.10;;;;;;5525447;26;20702;-86
2024/04/13 01:08:59;;;;;;;17.67;12.57;;;11.20;91.10;;;;;;5525614;26;20322;-85
2024/04/13 01:11:26;;;;;;;21.50;12.67;;;11.10;91.10;;;;;;5525362;26;20256;-86
2024/04/13 01:13:54;;;;;;;22.43;12.97;;;11.20;91.10;;;;;;5525630;26;20314;-86
2024/04/13 01:16:28;;;;;;;22.53;13.10;;;11.20;91.00;;;;;;5527052;26;20244;-86
2024/04/13 01:18:54;;;;;;;16.90;12.77;;;11.20;91.00;;;;;;5496560;26;20230;-86
2024/04/13 01:21:20;;;;;;;24.83;12.80;;;11.20;90.90;;;;;;5529048;26;20321;-86
2024/04/13 01:23:49;;;;;;;18.40;12.43;;;11.20;91.10;;;;;;5496446;26;20265;-87
2024/04/13 01:26:15;;;;;;;16.07;12.20;;;11.20;91.00;;;;;;5529274;26;20262;-86
2024/04/13 01:28:41;;;;;;;17.13;12.57;;;11.10;91.00;;;;;;5529007;26;20257;-85
2024/04/13 01:31:08;;;;;;;19.27;12.90;;;11.10;91.00;;;;;;5529641;26;20278;-86
2024/04/13 01:33:34;;;;;;;18.27;12.40;;;11.10;91.10;;;;;;5528726;26;20726;-86
2024/04/13 01:36:00;;;;;;;16.77;13.43;;;11.00;91.20;;;;;;5496429;26;20218;-86
2024/04/13 01:38:26;;;;;;;16.67;10.37;;;11.00;91.30;;;;;;5528733;26;20214;-85
2024/04/13 01:40:52;;;;;;;22.60;10.53;;;10.90;91.50;;;;;;5496367;26;20226;-85
2024/04/13 01:43:17;;;;;;;20.33;10.80;;;10.80;91.90;;;;;;5529031;26;20238;-85
2024/04/13 01:45:43;;;;;;;18.07;9.93;;;10.80;92.00;;;;;;5496453;26;20306;-86
2024/04/13 01:48:10;;;;;;;15.30;9.83;;;10.80;92.00;;;;;;5496164;26;20689;-85
2024/04/13 01:50:36;;;;;;;15.03;9.77;;;10.70;92.00;;;;;;5496176;26;20226;-86
2024/04/13 01:53:01;;;;;;;14.90;10.03;;;10.80;92.00;;;;;;5528851;26;20225;-86
2024/04/13 01:55:27;;;;;;;19.43;10.67;;;10.70;92.00;;;;;;5496219;26;20218;-85
2024/04/13 01:57:53;;;;;;;18.03;9.10;;;10.80;91.80;;;;;;5528818;26;20713;-85
2024/04/13 02:00:19;;;;;;;14.13;9.20;;;11.00;91.60;;;;;;5528465;26;20594;-85
2024/04/13 02:02:44;;;;;;;15.40;9.20;;;11.10;91.40;;;;;;5528270;26;20305;-85
2024/04/13 02:05:10;;;;;;;15.13;9.17;;;11.20;91.10;;;;;;5528622;26;20217;-85
2024/04/13 02:07:36;;;;;;;16.87;9.10;;;11.30;91.10;;;;;;5528457;26;20298;-85
2024/04/13 02:10:02;;;;;;;15.83;9.40;;;11.30;91.00;;;;;;5528636;26;20318;-86
2024/04/13 02:12:28;;;;;;;12.03;8.83;;;11.30;91.00;;;;;;5495913;26;20635;-85
2024/04/13 02:14:54;;;;;;;14.07;10.73;;;11.30;91.10;;;;;;5528152;26;20249;-87
2024/04/13 02:17:21;;;;;;;17.07;9.07;;;11.30;91.10;;;;;;5528215;26;20222;-86
2024/04/13 02:19:47;;;;;;;11.87;9.43;;;11.30;91.00;;;;;;5495606;26;20230;-86
2024/04/13 02:22:15;;;;;;;18.00;9.40;;;11.30;91.00;;;;;;5528213;26;20674;-86
2024/04/13 02:24:43;;;;;;;18.80;9.70;;;11.40;90.90;;;;;;5528209;26;20223;-86
2024/04/13 02:27:12;;;;;;;14.90;8.80;;;11.50;90.60;;;;;;5527348;26;20214;-86
2024/04/13 02:29:43;;;;;;;11.10;8.67;;;11.50;90.60;;;;;;5528205;26;20253;-86
2024/04/13 02:32:09;;;;;;;14.63;9.30;;;11.60;90.30;;;;;;5528422;26;20552;-86
2024/04/13 02:34:34;;;;;;;16.53;9.37;;;11.60;90.20;;;;;;5528237;26;20225;-85
2024/04/13 02:37:00;;;;;;;13.17;8.00;;;11.50;90.20;;;;;;5495311;26;20222;-86
2024/04/13 02:39:26;;;;;;;13.13;8.27;;;11.50;90.20;;;;;;5528071;26;20234;-85
2024/04/13 02:41:52;;;;;;;17.27;9.10;;;11.50;90.20;;;;;;5527841;26;20591;-86
2024/04/13 02:44:18;;;;;;;12.97;8.00;;;11.40;90.40;;;;;;5528112;26;20226;-86
2024/04/13 02:46:43;;;;;;;13.00;8.80;;;11.40;90.60;;;;;;5528181;26;20218;-85
2024/04/13 02:49:09;;;;;;;16.10;9.77;;;11.40;90.80;;;;;;5528217;26;20214;-86
2024/04/13 02:51:34;;;;;;;16.43;9.33;;;11.40;90.80;;;;;;5527717;26;20218;-85
2024/04/13 02:54:00;;;;;;;11.83;9.27;;;11.40;90.80;;;;;;5495206;26;20265;-86
2024/04/13 02:56:26;;;;;;;15.73;9.60;;;11.50;90.80;;;;;;5527591;26;20209;-86
2024/04/13 02:58:51;;;;;;;12.87;8.40;;;11.50;90.70;;;;;;5495067;26;20256;-85
2024/04/13 03:01:17;;;;;;;11.93;9.40;;;11.50;90.60;;;;;;5527505;26;20217;-86
2024/04/13 03:03:42;;;;;;;10.20;8.20;;;11.50;90.60;;;;;;5527529;26;20687;-86
2024/04/13 03:06:09;;;;;;;12.87;9.53;;;11.50;90.40;;;;;;5527369;26;20732;-85
2024/04/13 03:08:35;;;;;;;20.63;14.23;;;11.50;90.40;;;;;;5527503;26;20562;-86
2024/04/13 03:11:02;;;;;;;15.80;12.03;;;11.50;90.50;;;;;;5527825;26;20222;-85
2024/04/13 03:13:28;;;;;;;13.87;11.47;;;11.50;90.40;;;;;;5527225;26;20225;-85
2024/04/13 03:16:05;;;;;;;16.40;12.80;;;11.50;90.50;;;;;;5527638;26;20245;-85
2024/04/13 03:18:31;;;;;;;15.07;11.97;;;11.50;90.40;;;;;;5527400;26;20305;-85
2024/04/13 03:20:57;;;;;;;15.00;11.97;;;11.50;90.40;;;;;;5527401;26;20214;-85
2024/04/13 03:23:23;;;;;;;13.00;11.33;;;11.50;90.40;;;;;;5527608;26;20752;-86
2024/04/13 03:25:49;;;;;;;12.97;11.63;;;11.40;90.50;;;;;;5495038;26;20246;-86
2024/04/13 03:28:15;;;;;;;12.17;10.97;;;11.50;90.70;;;;;;5527390;26;20214;-85
2024/04/13 03:30:40;;;;;;;14.97;11.30;;;11.40;90.80;;;;;;5527239;26;20249;-86
2024/04/13 03:33:06;;;;;;;17.17;11.70;;;11.50;90.80;;;;;;5527326;26;20310;-85
2024/04/13 03:35:35;;;;;;;14.93;11.77;;;11.40;90.80;;;;;;5494803;26;20229;-86
2024/04/13 03:38:01;;;;;;;19.30;11.77;;;11.40;90.90;;;;;;5527152;26;20568;-85
2024/04/13 03:40:27;;;;;;;12.37;11.07;;;11.30;90.90;;;;;;5525371;26;20253;-86
2024/04/13 03:42:52;;;;;;;14.53;10.60;;;11.40;91.00;;;;;;5526896;26;20213;-87
2024/04/13 03:45:18;;;;;;;12.80;11.07;;;11.50;90.90;;;;;;5527047;26;20743;-86
2024/04/13 03:47:43;;;;;;;11.83;10.67;;;11.40;90.90;;;;;;5527016;26;20286;-86
2024/04/13 03:50:10;;;;;;;13.90;10.27;;;11.40;90.80;;;;;;5494381;26;20278;-86
2024/04/13 03:52:35;;;;;;;11.47;10.37;;;11.50;90.80;;;;;;5526996;26;20249;-85
2024/04/13 03:55:02;;;;;;;12.40;11.17;;;11.50;90.80;;;;;;5526908;26;20210;-86
2024/04/13 03:57:27;;;;;;;18.23;11.07;;;11.50;90.90;;;;;;5494355;26;20314;-85
2024/04/13 03:59:53;;;;;;;12.17;10.83;;;11.40;91.00;;;;;;5526557;26;20693;-85
2024/04/13 04:02:18;;;;;;;14.10;10.97;;;11.40;91.10;;;;;;5526727;26;20254;-85
2024/04/13 04:04:44;;;;;;;14.60;10.73;;;11.40;91.20;;;;;;5494144;26;20226;-85
2024/04/13 04:07:09;;;;;;;11.37;10.27;;;11.40;91.40;;;;;;5526796;26;20326;-86
2024/04/13 04:09:35;;;;;;;10.67;9.63;;;11.40;91.30;;;;;;5526836;26;20277;-86
2024/04/13 04:12:02;;;;;;;13.33;10.27;;;11.30;91.50;;;;;;5526598;26;20326;-85
2024/04/13 04:14:27;;;;;;;15.07;9.90;;;11.40;91.60;;;;;;5526443;26;20683;-86
2024/04/13 04:16:53;;;;;;;13.23;11.13;;;11.40;91.70;;;;;;5493873;26;20214;-86
2024/04/13 04:19:19;;;;;;;17.27;12.17;;;11.40;91.70;;;;;;5526446;26;20256;-86
2024/04/13 04:21:45;;;;;;;12.53;10.67;;;11.50;91.70;;;;;;5526118;26;20675;-85
2024/04/13 04:24:10;;;;;;;14.03;7.90;;;11.50;91.50;;;;;;5526252;26;20234;-86
2024/04/13 04:26:36;;;;;;;11.93;8.23;;;11.50;91.50;;;;;;5526431;26;20260;-86
2024/04/13 04:29:02;;;;;;;11.97;7.17;;;11.50;91.40;;;;;;5493861;26;20221;-85
2024/04/13 04:31:28;;;;;;;12.53;7.33;;;11.50;91.30;;;;;;5526310;26;20633;-86
2024/04/13 04:33:53;;;;;;;13.90;8.10;;;11.50;91.30;;;;;;5493496;26;20230;-85
2024/04/13 04:36:19;;;;;;;11.77;7.63;;;11.50;91.30;;;;;;5526628;26;20572;-85
2024/04/13 04:38:46;;;;;;;11.50;7.83;;;11.60;91.40;;;;;;5493227;26;20225;-86
2024/04/13 04:41:12;;;;;;;9.47;8.17;;;11.70;91.30;;;;;;5493702;26;20225;-85
2024/04/13 04:43:38;;;;;;;12.93;7.83;;;11.60;91.20;;;;;;5493287;26;20268;-86
2024/04/13 04:46:03;;;;;;;12.40;8.30;;;11.70;91.30;;;;;;5493411;26;20219;-85
2024/04/13 04:48:29;;;;;;;13.30;7.53;;;11.70;91.30;;;;;;5493235;26;20229;-85
2024/04/13 04:50:58;;;;;;;11.60;9.07;;;11.70;91.30;;;;;;5494361;26;20305;-86
2024/04/13 04:53:27;;;;;;;11.63;7.60;;;11.60;91.50;;;;;;5529463;26;20736;-85
2024/04/13 04:55:53;;;;;;;12.60;8.03;;;11.60;91.50;;;;;;5529694;26;20256;-86
2024/04/13 04:58:19;;;;;;;9.73;8.13;;;11.70;91.50;;;;;;5529400;26;20214;-86
2024/04/13 05:00:45;;;;;;;14.80;7.97;;;11.70;91.50;;;;;;5529532;26;20637;-86
2024/04/13 05:03:11;;;;;;;18.17;8.23;;;11.70;91.60;;;;;;5496663;26;20226;-85
2024/04/13 05:05:36;;;;;;;12.50;7.53;;;11.80;91.40;;;;;;5529753;26;20605;-86
2024/04/13 05:08:02;;;;;;;9.87;7.13;;;11.70;91.40;;;;;;5496747;26;20218;-86
2024/04/13 05:10:27;;;;;;;10.70;8.17;;;11.80;91.40;;;;;;5529079;26;20261;-86
2024/04/13 05:12:53;;;;;;;8.50;7.20;;;11.80;91.20;;;;;;5529459;26;20244;-85
2024/04/13 05:15:19;;;;;;;9.63;8.00;;;11.90;91.00;;;;;;5496563;26;20234;-86
2024/04/13 05:17:45;;;;;;;9.77;7.27;;;11.90;91.10;;;;;;5496768;26;20600;-86
2024/04/13 05:20:11;;;;;;;11.17;8.07;;;11.90;91.00;;;;;;5529115;26;20691;-86
2024/04/13 05:22:37;;;;;;;9.20;7.70;;;11.90;91.10;;;;;;5529490;26;20214;-86
2024/04/13 05:25:03;;;;;;;9.20;7.70;;;11.90;91.20;;;;;;5529062;26;20558;-86
2024/04/13 05:27:29;;;;;;;11.77;8.17;;;11.90;91.20;;;;;;5529510;26;20210;-86
2024/04/13 05:29:55;;;;;;;11.40;7.07;;;11.90;91.10;;;;;;5496527;26;20218;-86
2024/04/13 05:32:21;;;;;;;13.13;7.50;;;12.00;91.20;;;;;;5529068;26;20338;-86
2024/04/13 05:34:47;;;;;;;16.07;7.60;;;12.00;91.10;;;;;;5529140;26;20694;-86
2024/04/13 05:37:12;;;;;;;11.47;8.23;;;12.00;91.00;;;;;;5496284;26;20222;-86
2024/04/13 05:39:38;;;;;;;11.10;7.37;;;12.00;91.10;;;;;;5528947;26;20705;-86
2024/04/13 05:42:04;;;;;;;11.70;7.77;;;12.00;91.00;;;;;;5529103;26;20268;-86
2024/04/13 05:44:30;;;;;;;13.23;8.17;;;12.00;91.00;;;;;;5529156;26;20265;-86
2024/04/13 05:46:55;;;;;;;11.77;7.47;;;12.10;91.10;;;;;;5528894;26;20290;-86
2024/04/13 05:49:21;;;;;;;9.33;7.03;;;12.10;91.00;;;;;;5529191;26;20701;-85
2024/04/13 05:51:48;;;;;;;9.97;7.73;;;12.10;91.00;;;;;;5528791;26;20222;-86
2024/04/13 05:54:13;;;;;;;7.87;7.07;;;12.10;90.90;;;;;;5529322;26;20226;-86
2024/04/13 05:56:39;;;;;;;8.97;7.27;;;12.10;91.00;;;;;;5528651;26;20210;-85
2024/04/13 05:59:05;;;;;;;8.83;7.03;;;12.10;91.00;;;;;;5528820;26;20314;-86
2024/04/13 06:01:31;;;;;;;8.17;7.10;;;12.10;91.00;;;;;;5528613;26;20211;-86
2024/04/13 06:03:56;;;;;;;12.20;8.00;;;12.20;91.00;;;;;;5494849;26;20325;-86
2024/04/13 06:06:22;;;;;;;11.90;7.27;;;12.20;91.00;;;;;;5528419;26;20686;-86
2024/04/13 06:08:48;;;;;;;9.30;7.20;;;12.30;90.90;;;;;;5495762;26;20266;-86
2024/04/13 06:11:13;;;;;;;8.10;6.67;;;12.30;90.80;;;;;;5528605;26;20285;-86
2024/04/13 06:13:41;;;;;;;11.23;7.73;;;12.30;90.60;;;;;;5495852;26;20329;-87
2024/04/13 06:16:06;;;;;;;7.97;7.03;;;12.30;90.60;;;;;;5528647;26;20240;-86
2024/04/13 06:18:32;;;;;;;12.73;8.13;;;12.40;90.60;;;;;;5495796;26;20638;-86
2024/04/13 06:20:58;;;;;;;11.33;8.00;;;12.40;90.50;;;;;;5495725;26;20719;-86
2024/04/13 06:23:23;;;;;;;13.17;8.17;;;12.40;90.50;;;;;;5528439;26;20226;-86
2024/04/13 06:25:49;;;;;;;12.30;7.57;;;12.50;90.50;;;;;;5528152;26;20210;-86
2024/04/13 06:28:15;;;;;;;7.90;6.80;;;12.50;90.60;;;;;;5495666;26;20248;-86
2024/04/13 06:30:43;;;;;;;11.07;7.17;;;12.50;90.60;;;;;;5528592;26;20211;-86
2024/04/13 06:33:10;;;;;;;9.53;7.10;;;12.60;90.50;;;;;;5528277;26;20257;-85
2024/04/13 06:35:35;;;;;;;11.50;6.80;;;12.60;90.70;;;;;;5495890;26;20263;-86
2024/04/13 06:38:01;;;;;;;8.47;7.33;;;12.70;90.60;;;;;;5528254;26;20205;-86
2024/04/13 06:40:26;;;;;;;12.30;7.83;;;12.70;90.60;;;;;;5527982;26;20226;-86
2024/04/13 06:42:52;;;;;;;13.03;7.60;;;12.70;90.40;;;;;;5495368;26;20565;-86
2024/04/13 06:45:17;;;;;;;14.03;8.07;;;12.90;90.30;;;;;;5528428;26;20214;-85
2024/04/13 06:47:43;;;;;;;10.13;7.43;;;12.90;90.20;;;;;;5528141;26;20214;-86
2024/04/13 06:50:08;;;;;;;9.93;7.63;;;12.90;90.10;;;;;;5495574;26;20277;-86
2024/04/13 06:52:34;;;;;;;10.90;7.27;;;12.90;90.10;;;;;;5527784;26;20590;-86
2024/04/13 06:54:59;;;;;;;9.63;7.33;;;13.00;90.00;;;;;;5528347;26;20269;-86
2024/04/13 06:57:28;;;;;;;15.73;7.37;;;13.00;89.90;;;;;;5527857;26;20253;-86
2024/04/13 06:59:54;;;;;;;10.40;7.90;;;13.10;90.00;;;;;;5527881;26;20210;-86
2024/04/13 07:02:20;;;;;;;10.90;7.47;;;13.10;89.80;;;;;;5495518;26;20218;-86
2024/04/13 07:04:45;;;;;;;12.63;7.73;;;13.10;89.70;;;;;;5527948;26;20222;-85
2024/04/13 07:07:11;;;;;;;14.60;8.43;;;13.20;89.50;;;;;;5527975;26;20217;-85
2024/04/13 07:09:37;;;;;;;10.83;7.70;;;13.20;89.80;;;;;;5528123;26;20702;-85
2024/04/13 07:12:03;;;;;;;10.83;8.00;;;13.30;89.70;;;;;;5494919;26;20314;-85
2024/04/13 07:14:28;;;;;;;11.40;7.53;;;13.40;89.50;;;;;;5527216;26;20252;-85
2024/04/13 07:16:54;;;;;;;8.93;7.33;;;13.50;89.70;;;;;;5494861;26;20222;-86
2024/04/13 07:19:19;;;;;;;13.33;8.17;;;13.50;89.00;;;;;;5528150;26;20686;-86
2024/04/13 07:21:45;;;;;;;10.97;8.30;;;13.50;89.10;;;;;;5527261;26;20318;-86
2024/04/13 07:24:10;;;;;;;14.97;8.17;;;13.50;88.90;;;;;;5527528;26;20234;-86
2024/04/13 07:26:36;;;;;;;14.97;10.63;;;13.70;88.60;;;;;;5527627;26;20260;-87
2024/04/13 07:29:02;;;;;;;15.43;10.03;;;13.70;88.50;;;;;;5527274;26;20690;-86
2024/04/13 07:31:27;;;;;;;10.93;9.83;;;13.70;88.40;;;;;;5527402;26;20274;-86
2024/04/13 07:33:53;;;;;;;17.63;11.47;;;13.70;88.40;;;;;;5527487;26;20245;-86
2024/04/13 07:36:18;;;;;;;15.10;10.43;;;13.80;88.40;;;;;;5527181;26;20245;-87
2024/04/13 07:38:44;;;;;;;18.27;11.15;;;13.90;88.70;;;;;;5527365;26;20218;-86
2024/04/13 07:41:09;;;;;;;11.53;10.33;;;14.00;88.40;;;;;;5494687;26;20226;-86
2024/04/13 07:43:36;;;;;;;14.07;11.95;;;14.00;88.10;;;;;;5527100;26;20230;-87
2024/04/13 07:46:01;;;;;;;15.40;10.13;;;14.00;88.20;;;;;;5527260;26;20810;-85
2024/04/13 07:48:27;;;;;;;13.43;10.70;;;14.00;87.40;;;;;;5495810;26;20713;-86
2024/04/13 07:50:52;;;;;;;12.70;11.40;;;14.10;87.30;;;;;;5527262;26;20797;-86
2024/04/13 07:53:18;;;;;;;13.07;10.50;;;14.10;87.10;;;;;;5526754;26;20237;-86
2024/04/13 07:55:43;;;;;;;20.20;11.60;;;14.30;87.50;;;;;;5527052;26;20260;-86
2024/04/13 07:58:09;;;;;;;12.25;10.93;;;14.20;86.80;;;;;;5494244;26;20241;-85
2024/04/13 08:00:35;;;;;;;12.35;10.63;;;14.40;87.60;;;;;;5494050;26;20218;-86
2024/04/13 08:03:01;;;;;;;15.48;8.88;;;14.40;87.40;;;;;;5494121;26;20238;-88
2024/04/13 08:05:26;;;;;;;11.27;8.20;;;14.50;87.20;;;;;;5494780;26;20612;-87
2024/04/13 08:07:52;;;;;;;11.93;8.60;;;14.40;86.60;;;;;;5528246;26;20214;-86
2024/04/13 08:10:19;;;;;;;10.95;7.68;;;14.60;86.90;;;;;;5526962;26;20210;-86
2024/04/13 08:12:45;;;;;;;14.07;8.27;;;14.70;87.20;;;;;;5493995;26;20218;-87
2024/04/13 08:15:11;;;;;;;11.88;8.27;;;14.60;85.80;;;;;;5526537;26;20702;-85
2024/04/13 08:17:37;;;;;;;11.40;8.90;;;14.80;86.50;;;;;;5526500;26;20210;-85
2024/04/13 08:20:04;;;;;;;13.23;9.30;;;14.80;86.10;;;;;;5526430;26;20802;-86
2024/04/13 08:22:30;;;;;;;12.45;8.80;;;14.80;85.90;;;;;;5493798;26;20233;-87
2024/04/13 08:24:55;;;;;;;15.27;9.27;;;14.80;85.40;;;;;;5526650;26;20268;-86
2024/04/13 08:27:21;;;;;;;17.13;9.48;;;15.00;86.10;;;;;;5529697;26;20256;-86
2024/04/13 08:29:50;;;;;;;11.23;9.48;;;14.90;84.80;;;;;;5529791;26;20269;-86
2024/04/13 08:32:15;;;;;;;12.70;8.77;;;15.00;84.30;;;;;;5530012;26;20248;-87
2024/04/13 08:34:41;;;;;;;13.85;9.05;;;15.10;84.80;;;;;;5497151;26;20230;-86
2024/04/13 08:37:07;;;;;;;13.32;9.20;;;15.20;84.80;;;;;;5529964;26;20206;-86
2024/04/13 08:39:35;;;;;;;11.63;8.93;;;15.30;84.70;;;;;;5529874;26;20222;-86
2024/04/13 08:42:10;;;;;;;15.40;9.10;;;15.30;84.40;;;;;;5529550;26;20634;-86
2024/04/13 08:44:39;;;;;;;13.68;10.15;;;15.40;83.70;;;;;;5529604;26;20273;-86
2024/04/13 08:47:06;;;;;;;14.30;9.77;;;15.50;84.30;;;;;;5529660;26;20210;-86
2024/04/13 08:49:39;;;;;;;15.02;9.60;;;15.40;83.60;;;;;;5496917;26;20244;-86
2024/04/13 08:52:08;;;;;;;13.65;11.20;;;15.60;84.20;;;;;;5529987;26;20186;-86
2024/04/13 08:54:34;;;;;;;13.82;10.70;;;15.50;82.80;;;;;;5497514;26;20230;-87
2024/04/13 08:57:05;;;;;;;14.57;9.07;;;15.50;83.20;;;;;;5530689;26;20256;-87
2024/04/13 08:59:31;;;;;;;13.02;9.77;;;15.60;83.40;;;;;;5530123;26;20201;-87
2024/04/13 09:01:58;;;;;;;11.48;10.20;;;15.70;83.40;;;;;;5496830;26;20702;-86
2024/04/13 09:04:23;;;;;;;14.13;11.30;;;15.80;82.70;;;;;;5529530;26;20317;-87
2024/04/13 09:06:49;;;;;;;12.10;9.98;;;15.80;81.50;;;;;;5529538;26;20218;-86
2024/04/13 09:09:15;;;;;;;14.90;10.80;;;15.90;82.50;;;;;;5496798;26;20250;-87
2024/04/13 09:11:40;;;;;;;14.85;9.90;;;15.90;82.40;;;;;;5529264;26;20318;-85
2024/04/13 09:14:07;;;;;;;11.73;10.60;;;15.90;81.60;;;;;;5496799;26;20340;-86
2024/04/13 09:16:33;;;;;;;14.50;11.25;;;16.10;82.40;;;;;;5529672;26;20253;-87
2024/04/13 09:19:00;;;;;;;15.98;11.52;;;16.10;81.40;;;;;;5529735;26;20210;-91
2024/04/13 09:21:27;;;;;;;12.07;10.85;;;16.20;81.60;;;;;;5533063;26;20214;-90
2024/04/13 09:23:55;;;;;;;13.85;10.57;;;16.20;81.00;;;;;;5498490;26;20269;-90
2024/04/13 09:26:22;;;;;;;11.82;10.57;;;16.50;81.80;;;;;;5529523;26;20214;-90
2024/04/13 09:28:48;;;;;;;12.40;10.75;;;16.50;81.10;;;;;;5496881;26;20229;-90
2024/04/13 09:31:14;;;;;;;15.07;10.98;;;16.60;81.10;;;;;;5529355;26;20210;-90
2024/04/13 09:33:46;;;;;;;13.32;11.07;;;16.40;81.30;;;;;;5496654;26;20234;-90
2024/04/13 09:36:26;;;;;;;16.00;11.23;;;16.50;80.10;;;;;;5529419;26;20170;-92
2024/04/13 09:38:55;;;;;;;12.50;11.23;;;16.70;80.80;;;;;;5497043;26;20563;-90
2024/04/13 09:41:22;;;;;;;13.85;11.50;;;16.70;79.20;;;;;;5496980;26;20229;-90
2024/04/13 09:43:49;;;;;;;14.07;11.70;;;16.60;80.40;;;;;;5496387;26;20264;-90
2024/04/13 09:46:15;;;;;;;13.40;10.82;;;17.10;82.00;;;;;;5529274;26;20215;-90
2024/04/13 09:48:41;;;;;;;13.10;11.73;;;17.30;81.00;;;;;;5529267;26;20302;-90
2024/04/13 09:51:06;;;;;;;15.05;10.93;;;17.00;79.10;;;;;;5529769;26;20214;-90
2024/04/13 09:53:32;;;;;;;16.15;12.02;;;17.20;81.50;;;;;;5496005;26;20268;-91
2024/04/13 09:55:57;;;;;;;13.50;12.30;;;17.40;79.90;;;;;;5529018;26;20257;-90
2024/04/13 09:58:24;;;;;;;15.40;12.38;;;17.30;79.80;;;;;;5496447;26;20218;-90
2024/04/13 10:00:50;;;;;;;12.60;11.02;;;17.00;78.30;;;;;;5528780;26;20300;-89
2024/04/13 10:03:16;;;;;;;13.38;12.05;;;17.20;80.60;;;;;;5496153;26;20282;-89
2024/04/13 10:05:46;;;;;;;14.43;11.95;;;17.60;79.40;;;;;;5496352;26;20218;-89
2024/04/13 10:08:13;;;;;;;12.52;11.25;;;17.60;78.60;;;;;;5528958;26;20211;-89
2024/04/13 10:10:50;;;;;;;16.00;14.32;;;17.90;80.00;;;;;;5496150;26;20234;-90
2024/04/13 10:13:24;;;;;;;15.43;13.60;;;17.70;77.50;;;;;;5529241;26;20253;-85
2024/04/13 10:15:50;;;;;;;15.75;13.27;;;17.70;77.10;;;;;;5529043;26;20334;-85
2024/04/13 10:18:16;;;;;;;15.13;13.80;;;17.50;78.30;;;;;;5531288;26;20210;-83
2024/04/13 10:20:42;;;;;;;17.17;15.20;;;17.40;77.70;;;;;;5495735;26;20222;-85
2024/04/13 10:23:12;;;;;;;17.98;12.27;;;17.80;77.20;;;;;;5528233;26;20656;-85
2024/04/13 10:25:37;;;;;;;16.15;13.77;;;18.20;77.40;;;;;;5528035;26;20206;-86
2024/04/13 10:28:08;;;;;;;18.85;15.07;;;18.30;75.70;;;;;;5528354;26;20694;-85
2024/04/13 10:30:52;;;;;;;16.30;14.60;;;18.10;76.50;;;;;;5495482;26;20763;-85
2024/04/13 10:33:22;;;;;;;16.20;13.65;;;18.00;75.80;;;;;;5528165;26;20226;-85
2024/04/13 10:35:59;;;;;;;15.27;13.95;;;18.10;76.50;;;;;;5527882;26;20256;-86
2024/04/13 10:38:27;;;;;;;15.85;14.32;;;17.90;76.40;;;;;;5528049;26;20171;-85
2024/04/13 10:40:53;;;;;;;15.15;13.55;;;17.90;75.90;;;;;;5528206;26;20273;-85
2024/04/13 10:43:20;;;;;;;15.82;14.02;;;17.60;77.00;;;;;;5527777;26;20222;-85
2024/04/13 10:45:59;;;;;;;14.20;12.85;;;17.90;76.90;;;;;;5527754;26;20214;-85
2024/04/13 10:48:27;;;;;;;15.45;14.07;;;18.10;76.60;;;;;;5526857;26;20694;-85
2024/04/13 10:50:55;;;;;;;14.15;13.05;;;18.10;75.80;;;;;;5527977;26;20230;-84
2024/04/13 10:53:23;;;;;;;13.98;12.88;;;18.20;75.80;;;;;;5527608;26;20694;-84
2024/04/13 10:55:50;;;;;;;16.10;14.25;;;18.30;76.30;;;;;;5528012;26;20218;-85
2024/04/13 10:58:15;;;;;;;16.15;14.48;;;18.10;75.10;;;;;;5527648;26;20206;-87
2024/04/13 11:00:49;;;;;;;16.05;14.75;;;18.00;75.70;;;;;;5527611;26;20245;-85
2024/04/13 11:03:16;;;;;;;14.95;13.45;;;18.30;75.50;;;;;;5527766;26;20716;-85
2024/04/13 11:05:45;;;;;;;17.00;14.48;;;18.70;74.70;;;;;;5527730;26;20256;-85
2024/04/13 11:08:12;;;;;;;16.05;14.43;;;18.70;74.00;;;;;;5527387;26;20608;-85
2024/04/13 11:10:39;;;;;;;16.98;15.50;;;18.80;74.10;;;;;;5527940;26;20251;-84
2024/04/13 11:13:05;;;;;;;16.65;15.20;;;18.60;72.10;;;;;;5527384;26;20226;-89
2024/04/13 11:15:32;;;;;;;16.52;15.13;;;18.80;73.00;;;;;;5527821;26;20214;-85
2024/04/13 11:17:58;;;;;;;16.05;14.75;;;18.50;73.00;;;;;;5527524;26;20210;-85
2024/04/13 11:20:26;;;;;;;16.42;15.15;;;18.70;72.40;;;;;;5494722;26;20230;-84
2024/04/13 11:22:52;;;;;;;16.90;15.60;;;18.70;73.00;;;;;;5527390;26;20253;-85
2024/04/13 11:25:19;;;;;;;16.48;15.05;;;19.00;71.20;;;;;;5527554;26;20214;-84
2024/04/13 11:27:45;;;;;;;17.23;15.82;;;19.20;72.70;;;;;;5527624;26;20218;-91
2024/04/13 11:30:11;;;;;;;17.50;15.65;;;18.90;70.90;;;;;;5527496;26;20326;-84
2024/04/13 11:32:37;;;;;;;17.80;16.08;;;18.60;70.70;;;;;;5494616;26;20597;-84
2024/04/13 11:35:03;;;;;;;16.83;15.27;;;18.40;71.70;;;;;;5527057;26;20249;-84
2024/04/13 11:37:29;;;;;;;17.50;16.00;;;18.90;72.00;;;;;;5494699;26;20737;-85
2024/04/13 11:39:55;;;;;;;16.90;15.15;;;18.70;70.20;;;;;;5527067;26;20663;-85
2024/04/13 11:42:21;;;;;;;17.98;16.35;;;18.80;71.90;;;;;;5527168;26;20210;-84
2024/04/13 11:44:49;;;;;;;19.13;17.42;;;18.70;71.30;;;;;;5527039;26;20701;-86
2024/04/13 11:47:15;;;;;;;17.52;15.90;;;18.70;70.30;;;;;;5527195;26;20272;-87
2024/04/13 11:49:41;;;;;;;17.42;15.80;;;18.70;69.80;;;;;;5494439;26;20245;-91
2024/04/13 11:52:11;;;;;;;18.90;15.70;;;18.80;70.90;;;;;;5494544;26;20229;-87
2024/04/13 11:54:37;;;;;;;18.27;16.67;;;19.10;71.20;;;;;;5526975;26;20588;-88
2024/04/13 11:57:10;;;;;;;19.40;17.42;;;19.20;70.00;;;;;;5526824;26;20600;-85
2024/04/13 11:59:35;;;;;;;18.70;16.95;;;19.20;68.50;;;;;;5526581;26;20202;-85
2024/04/13 12:02:01;;;;;;;18.48;16.95;;;19.10;68.40;;;;;;5525317;26;20206;-85
2024/04/13 12:04:26;;;;;;;18.30;16.65;;;19.00;69.30;;;;;;5526792;26;20222;-85
2024/04/13 12:06:52;;;;;;;18.35;16.90;;;18.90;69.50;;;;;;5526607;26;20214;-85
2024/04/13 12:09:18;;;;;;;19.65;17.90;;;18.90;69.20;;;;;;5494103;26;20222;-84
2024/04/13 12:11:43;;;;;;;19.23;17.73;;;18.90;69.10;;;;;;5493903;26;20716;-84
2024/04/13 12:14:10;;;;;;;18.80;17.40;;;19.20;68.30;;;;;;5526627;26;20313;-84
2024/04/13 12:16:35;;;;;;;18.83;17.33;;;19.30;69.00;;;;;;5526438;26;20210;-84
2024/04/13 12:19:03;;;;;;;18.65;17.10;;;19.20;68.00;;;;;;5493874;26;20221;-84
2024/04/13 12:21:32;;;;;;;18.52;17.23;;;19.30;68.50;;;;;;5493821;26;20217;-85
2024/04/13 12:23:57;;;;;;;19.20;17.70;;;19.30;68.10;;;;;;5526573;26;20218;-84
2024/04/13 12:26:24;;;;;;;18.48;16.77;;;19.30;67.80;;;;;;5526239;26;20210;-85